createdAt,value
2023-03-15T00:28:28.437Z,0.83
2023-03-15T00:33:36.277Z,0.90
2023-03-15T00:38:42.225Z,0.60
2023-03-15T00:43:49.348Z,1.35
2023-03-15T00:48:55.579Z,1.60
2023-03-15T00:53:59.774Z,1.10
2023-03-15T00:59:04.833Z,1.27
2023-03-15T01:04:10.113Z,1.60
2023-03-15T01:09:14.900Z,1.52
2023-03-15T01:14:20.896Z,1.83
2023-03-15T01:19:25.875Z,1.23
2023-03-15T01:24:33.934Z,1.42
2023-03-15T01:29:40.151Z,1.63
2023-03-15T01:34:46.020Z,1.77
2023-03-15T01:39:51.468Z,1.73
2023-03-15T01:45:00.254Z,1.83
2023-03-15T01:50:10.680Z,2.13
2023-03-15T01:55:19.529Z,2.47
2023-03-15T02:00:41.603Z,1.50
2023-03-15T02:05:57.103Z,2.20
2023-03-15T02:11:26.087Z,2.10
2023-03-15T02:16:39.919Z,2.78
2023-03-15T02:22:05.122Z,3.37
2023-03-15T02:27:10.431Z,2.28
2023-03-15T02:32:18.473Z,1.60
2023-03-15T02:37:23.681Z,2.13
2023-03-15T02:42:27.176Z,1.60
2023-03-15T02:47:36.317Z,1.60
2023-03-15T02:52:40.894Z,3.80
2023-03-15T02:57:44.488Z,2.38
2023-03-15T03:02:50.658Z,2.57
2023-03-15T03:07:54.268Z,2.88
2023-03-15T03:12:59.195Z,2.77
2023-03-15T03:18:12.073Z,2.28
2023-03-15T03:23:15.920Z,1.65
2023-03-15T03:28:19.200Z,1.30
2023-03-15T03:33:25.637Z,1.70
2023-03-15T03:38:30.759Z,2.07
2023-03-15T03:43:37.763Z,1.60
2023-03-15T03:48:52.647Z,1.67
2023-03-15T03:53:58.906Z,1.60
2023-03-15T03:59:03.757Z,1.63
2023-03-15T04:04:24.175Z,1.77
2023-03-15T04:09:27.583Z,1.38
2023-03-15T04:14:35.481Z,1.90
2023-03-15T04:19:44.659Z,2.13
2023-03-15T04:24:53.797Z,2.10
2023-03-15T04:30:24.610Z,2.57
2023-03-15T04:35:42.704Z,1.90
2023-03-15T04:41:10.593Z,1.58
2023-03-15T04:46:36.820Z,1.50
2023-03-15T04:51:57.993Z,1.48
2023-03-15T04:57:21.790Z,2.00
2023-03-15T05:02:35.166Z,2.00
2023-03-15T05:20:14.524Z,1.48
2023-03-15T05:25:40.071Z,2.00
2023-03-15T05:31:03.831Z,1.67
2023-03-15T05:36:35.659Z,2.60
2023-03-15T05:41:58.032Z,3.70
2023-03-15T05:47:20.465Z,3.30
2023-03-15T05:52:42.974Z,2.50
2023-03-15T05:57:56.674Z,3.10
2023-03-15T06:03:30.483Z,2.78
2023-03-15T06:08:45.022Z,5.50
2023-03-15T06:13:48.935Z,9.73
2023-03-15T06:19:09.678Z,3.90
2023-03-15T06:24:14.983Z,6.03
2023-03-15T06:29:19.860Z,5.35
2023-03-15T06:34:32.266Z,5.70
2023-03-15T06:39:42.263Z,11.70
2023-03-15T06:44:50.119Z,15.00
2023-03-15T06:50:06.708Z,12.63
2023-03-15T06:55:10.675Z,4.80
2023-03-15T07:00:24.586Z,5.80
2023-03-15T07:05:32.951Z,4.68
2023-03-15T07:10:42.414Z,2.57
2023-03-15T07:15:57.961Z,2.60
2023-03-15T07:21:10.301Z,2.65
2023-03-15T07:26:22.855Z,2.00
2023-03-15T07:31:39.198Z,2.28
2023-03-15T07:36:56.617Z,2.40
2023-03-15T07:42:06.247Z,2.13
2023-03-15T07:47:22.362Z,2.53
2023-03-15T07:52:33.397Z,2.20
2023-03-15T07:57:39.606Z,4.88
2023-03-15T08:02:48.211Z,10.17
2023-03-15T08:08:11.216Z,4.45
2023-03-15T08:13:24.165Z,4.30
2023-03-15T08:18:29.349Z,3.97
2023-03-15T08:23:56.986Z,9.77
2023-03-15T08:29:08.902Z,12.50
2023-03-15T08:34:24.783Z,8.30
2023-03-15T08:45:31.590Z,4.60
2023-03-15T08:50:47.663Z,2.85
2023-03-15T08:55:53.402Z,3.03
2023-03-15T09:01:18.567Z,4.35
2023-03-15T09:06:37.094Z,4.13
2023-03-15T09:11:45.279Z,3.20
2023-03-15T09:16:51.996Z,7.70
2023-03-15T09:22:17.021Z,5.60
2023-03-15T09:27:45.972Z,3.63
2023-03-15T09:33:00.900Z,3.03
2023-03-15T09:38:13.153Z,2.73
2023-03-15T09:44:05.244Z,3.10
2023-03-15T09:50:13.454Z,4.38
2023-03-15T10:07:07.478Z,3.87
2023-03-15T10:12:31.255Z,5.60
2023-03-15T10:18:09.837Z,3.78
2023-03-15T10:39:07.199Z,2.47
2023-03-15T11:19:57.479Z,2.80
2023-03-15T11:25:31.995Z,4.60
2023-03-15T11:31:18.874Z,3.45
2023-03-15T11:37:07.031Z,4.10
2023-03-15T11:42:40.522Z,3.33
2023-03-15T11:48:03.475Z,5.43
2023-03-15T12:06:39.464Z,2.47
2023-03-15T12:12:58.227Z,8.93
2023-03-15T12:18:36.377Z,5.82
2023-03-15T12:23:51.727Z,3.20
2023-03-15T12:29:54.740Z,3.50
2023-03-15T12:35:25.830Z,2.50
2023-03-15T12:41:40.601Z,3.33
2023-03-15T12:47:02.844Z,3.35
2023-03-15T12:52:56.379Z,3.40
2023-03-15T12:58:05.197Z,4.05
2023-03-15T13:03:53.957Z,4.10
2023-03-15T13:15:27.104Z,1.90
2023-03-15T13:21:23.976Z,3.17
2023-03-15T13:33:27.766Z,2.70
2023-03-15T13:38:45.452Z,2.20
2023-03-15T13:44:45.116Z,2.42
2023-03-15T13:57:36.193Z,2.45
2023-03-15T14:03:16.518Z,2.70
2023-03-15T14:08:31.288Z,1.67
2023-03-15T14:26:45.201Z,3.85
2023-03-15T14:39:01.779Z,8.20
2023-03-15T14:49:59.522Z,3.67
2023-03-15T14:55:14.944Z,2.80
2023-03-15T15:00:22.697Z,3.70
2023-03-15T15:05:33.165Z,4.30
2023-03-15T15:10:45.853Z,3.90
2023-03-15T15:15:55.957Z,8.40
2023-03-15T15:21:19.795Z,4.00
2023-03-15T15:26:30.031Z,12.90
2023-03-15T15:31:37.215Z,10.45
2023-03-15T15:36:43.064Z,4.03
2023-03-15T15:41:53.072Z,4.60
2023-03-15T15:46:58.528Z,4.45
2023-03-15T15:52:06.445Z,5.20
2023-03-15T15:57:17.768Z,15.45
2023-03-15T16:02:23.933Z,18.10
2023-03-15T16:07:30.103Z,12.03
2023-03-15T16:12:42.680Z,16.42
2023-03-15T16:17:47.451Z,8.00
2023-03-15T16:23:01.653Z,4.72
2023-03-15T16:28:11.572Z,5.88
2023-03-15T16:33:18.620Z,11.30
2023-03-15T16:38:31.198Z,13.05
2023-03-15T16:43:37.661Z,15.50
2023-03-15T16:48:45.175Z,8.57
2023-03-15T16:53:49.260Z,11.73
2023-03-15T16:58:57.979Z,20.23
2023-03-15T17:04:02.107Z,12.77
2023-03-15T17:09:13.777Z,13.77
2023-03-15T17:14:25.753Z,16.40
2023-03-15T17:19:30.791Z,17.33
2023-03-15T17:24:34.870Z,11.17
2023-03-15T17:29:45.349Z,9.25
2023-03-15T17:34:50.205Z,10.67
2023-03-15T17:40:04.304Z,12.55
2023-03-15T17:45:17.892Z,24.00
2023-03-15T17:50:23.134Z,24.73
2023-03-15T17:55:31.455Z,24.92
2023-03-15T18:00:39.079Z,21.53
2023-03-15T18:05:46.621Z,26.17
2023-03-15T18:10:52.935Z,17.48
2023-03-15T18:16:02.455Z,10.33
2023-03-15T18:21:12.715Z,9.25
2023-03-15T18:26:19.820Z,8.00
2023-03-15T18:31:29.312Z,9.18
2023-03-15T18:36:36.770Z,10.43
2023-03-15T18:41:42.979Z,9.93
2023-03-15T18:46:50.102Z,7.60
2023-03-15T18:51:57.268Z,7.03
2023-03-15T18:57:02.820Z,8.25
2023-03-15T19:07:50.797Z,6.53
2023-03-15T19:12:55.525Z,5.65
2023-03-15T19:18:02.556Z,5.90
2023-03-15T19:23:17.138Z,6.88
2023-03-15T19:28:24.078Z,7.45
2023-03-15T19:33:39.718Z,7.82
2023-03-15T19:38:46.198Z,7.32
2023-03-15T19:44:02.014Z,15.30
2023-03-15T19:49:11.552Z,15.38
2023-03-15T19:54:15.822Z,12.43
2023-03-15T19:59:20.554Z,10.73
2023-03-15T20:04:29.325Z,8.48
2023-03-15T20:09:46.406Z,6.97
2023-03-15T20:14:51.810Z,13.80
2023-03-15T20:25:26.666Z,5.50
2023-03-15T20:30:38.377Z,5.93
2023-03-15T20:35:44.134Z,6.07
2023-03-15T20:41:00.506Z,6.53
2023-03-15T20:46:07.993Z,5.60
2023-03-15T20:51:15.482Z,5.78
2023-03-15T20:56:20.435Z,5.25
2023-03-15T21:01:24.755Z,8.80
2023-03-15T21:06:31.676Z,8.23
2023-03-15T21:11:39.670Z,6.10
2023-03-15T21:16:43.474Z,5.60
2023-03-15T21:21:54.297Z,8.25
2023-03-15T21:27:01.539Z,6.67
2023-03-15T21:32:06.632Z,8.82
2023-03-15T21:37:14.088Z,10.63
2023-03-15T21:42:21.106Z,8.02
2023-03-15T21:47:31.375Z,8.05
2023-03-15T21:52:37.644Z,7.93
2023-03-15T21:57:44.185Z,7.80
2023-03-15T22:02:51.147Z,7.60
2023-03-15T22:07:57.625Z,5.93
2023-03-15T22:13:01.850Z,5.50
2023-03-15T22:18:06.904Z,17.13
2023-03-15T22:23:13.634Z,6.35
2023-03-15T22:28:40.517Z,5.15
2023-03-15T22:33:45.117Z,8.52
2023-03-15T22:38:50.421Z,5.50
2023-03-15T22:43:56.260Z,4.87
2023-03-15T22:49:09.680Z,4.40
2023-03-15T22:54:15.923Z,6.15
2023-03-15T22:59:20.734Z,4.78
2023-03-15T23:04:25.160Z,4.00
2023-03-15T23:09:30.868Z,3.33
2023-03-15T23:14:39.115Z,5.55
2023-03-15T23:19:45.750Z,5.03
2023-03-15T23:24:59.992Z,3.88
2023-03-15T23:30:07.344Z,4.82
2023-03-15T23:35:13.944Z,5.03
2023-03-15T23:40:28.910Z,5.57
2023-03-15T23:45:33.454Z,5.88
2023-03-15T23:50:40.994Z,6.97
2023-03-15T23:55:46.321Z,6.00
